sensor_id;sensor_type;location;lat;lon;timestamp;pressure;altitude;pressure_sealevel;temperature;humidity
19783;BME280;10051;40.294;-3.754;2024-02-14T00:00:06;94963.97;;;11.82;100.00
19783;BME280;10051;40.294;-3.754;2024-02-14T00:02:35;94945.00;;;11.80;100.00
19783;BME280;10051;40.294;-3.754;2024-02-14T00:05:02;94942.34;;;11.85;100.00
19783;BME280;10051;40.294;-3.754;2024-02-14T00:07:28;94872.13;;;11.29;100.00
19783;BME280;10051;40.294;-3.754;2024-02-14T00:09:54;94952.41;;;11.68;100.00
19783;BME280;10051;40.294;-3.754;2024-02-14T00:12:19;94935.03;;;11.67;100.00
19783;BME280;10051;40.294;-3.754;2024-02-14T00:14:45;94901.84;;;11.60;100.00
19783;BME280;10051;40.294;-3.754;2024-02-14T00:17:10;94933.94;;;11.83;100.00
19783;BME280;10051;40.294;-3.754;2024-02-14T00:19:36;94944.75;;;11.82;100.00
19783;BME280;10051;40.294;-3.754;2024-02-14T00:22:02;94930.25;;;11.74;100.00
19783;BME280;10051;40.294;-3.754;2024-02-14T00:24:27;94916.31;;;11.73;100.00
19783;BME280;10051;40.294;-3.754;2024-02-14T00:26:55;94968.69;;;11.90;100.00
19783;BME280;10051;40.294;-3.754;2024-02-14T00:29:22;94967.66;;;11.76;100.00
19783;BME280;10051;40.294;-3.754;2024-02-14T00:31:48;94939.78;;;11.65;100.00
19783;BME280;10051;40.294;-3.754;2024-02-14T00:34:13;94962.13;;;11.88;100.00
19783;BME280;10051;40.294;-3.754;2024-02-14T00:36:39;94876.06;;;11.37;100.00
19783;BME280;10051;40.294;-3.754;2024-02-14T00:39:04;94956.03;;;11.98;100.00
19783;BME280;10051;40.294;-3.754;2024-02-14T00:41:30;94942.63;;;11.89;100.00
19783;BME280;10051;40.294;-3.754;2024-02-14T00:43:56;94931.81;;;11.80;100.00
19783;BME280;10051;40.294;-3.754;2024-02-14T00:46:21;94958.69;;;12.03;100.00
19783;BME280;10051;40.294;-3.754;2024-02-14T00:48:47;94909.69;;;11.76;100.00
19783;BME280;10051;40.294;-3.754;2024-02-14T00:51:13;94952.63;;;12.08;100.00
19783;BME280;10051;40.294;-3.754;2024-02-14T00:53:38;94937.59;;;11.93;100.00
19783;BME280;10051;40.294;-3.754;2024-02-14T00:56:04;94936.03;;;11.92;100.00
19783;BME280;10051;40.294;-3.754;2024-02-14T00:58:33;94919.22;;;11.67;100.00
19783;BME280;10051;40.294;-3.754;2024-02-14T01:00:58;94910.81;;;11.49;100.00
19783;BME280;10051;40.294;-3.754;2024-02-14T01:03:24;94930.53;;;11.78;100.00
19783;BME280;10051;40.294;-3.754;2024-02-14T01:05:49;94937.38;;;11.79;100.00
19783;BME280;10051;40.294;-3.754;2024-02-14T01:08:15;94841.34;;;11.19;100.00
19783;BME280;10051;40.294;-3.754;2024-02-14T01:10:41;94946.84;;;11.90;100.00
19783;BME280;10051;40.294;-3.754;2024-02-14T01:13:06;94907.13;;;11.50;100.00
19783;BME280;10051;40.294;-3.754;2024-02-14T01:15:32;94956.06;;;11.87;100.00
19783;BME280;10051;40.294;-3.754;2024-02-14T01:17:58;94944.75;;;11.87;100.00
19783;BME280;10051;40.294;-3.754;2024-02-14T01:20:24;94836.63;;;11.11;100.00
19783;BME280;10051;40.294;-3.754;2024-02-14T01:22:50;94947.91;;;11.89;100.00
19783;BME280;10051;40.294;-3.754;2024-02-14T01:25:15;94847.66;;;11.13;100.00
19783;BME280;10051;40.294;-3.754;2024-02-14T01:27:41;94852.94;;;11.08;100.00
19783;BME280;10051;40.294;-3.754;2024-02-14T01:30:08;94823.97;;;10.87;100.00
19783;BME280;10051;40.294;-3.754;2024-02-14T01:32:34;94946.34;;;11.57;100.00
19783;BME280;10051;40.294;-3.754;2024-02-14T01:35:00;94868.72;;;11.03;100.00
19783;BME280;10051;40.294;-3.754;2024-02-14T01:37:26;94956.09;;;11.56;100.00
19783;BME280;10051;40.294;-3.754;2024-02-14T01:39:52;94910.03;;;11.38;100.00
19783;BME280;10051;40.294;-3.754;2024-02-14T01:42:17;94935.03;;;11.51;100.00
19783;BME280;10051;40.294;-3.754;2024-02-14T01:44:43;94958.75;;;11.62;100.00
19783;BME280;10051;40.294;-3.754;2024-02-14T01:47:10;94926.38;;;11.35;100.00
19783;BME280;10051;40.294;-3.754;2024-02-14T01:49:38;94947.16;;;11.47;100.00
19783;BME280;10051;40.294;-3.754;2024-02-14T01:52:04;94938.72;;;11.35;100.00
19783;BME280;10051;40.294;-3.754;2024-02-14T01:54:31;94944.00;;;11.45;100.00
19783;BME280;10051;40.294;-3.754;2024-02-14T01:56:57;94949.78;;;11.63;100.00
19783;BME280;10051;40.294;-3.754;2024-02-14T01:59:26;94907.13;;;11.35;100.00
19783;BME280;10051;40.294;-3.754;2024-02-14T02:01:52;94851.88;;;11.09;100.00
19783;BME280;10051;40.294;-3.754;2024-02-14T02:04:18;94855.03;;;11.16;100.00
19783;BME280;10051;40.294;-3.754;2024-02-14T02:06:44;94849.78;;;11.11;100.00
19783;BME280;10051;40.294;-3.754;2024-02-14T02:09:10;94955.03;;;11.73;100.00
19783;BME280;10051;40.294;-3.754;2024-02-14T02:11:49;94912.91;;;11.57;100.00
19783;BME280;10051;40.294;-3.754;2024-02-14T02:14:15;94953.97;;;11.84;100.00
19783;BME280;10051;40.294;-3.754;2024-02-14T02:16:41;94818.72;;;10.87;100.00
19783;BME280;10051;40.294;-3.754;2024-02-14T02:19:07;94953.19;;;11.68;100.00
19783;BME280;10051;40.294;-3.754;2024-02-14T02:21:38;94903.97;;;11.33;100.00
19783;BME280;10051;40.294;-3.754;2024-02-14T02:24:04;94929.78;;;11.46;100.00
19783;BME280;10051;40.294;-3.754;2024-02-14T02:26:30;94902.38;;;11.42;100.00
19783;BME280;10051;40.294;-3.754;2024-02-14T02:28:55;94847.66;;;11.13;100.00
19783;BME280;10051;40.294;-3.754;2024-02-14T02:31:22;94955.53;;;11.85;100.00
19783;BME280;10051;40.294;-3.754;2024-02-14T02:33:48;94861.88;;;11.22;100.00
19783;BME280;10051;40.294;-3.754;2024-02-14T02:36:15;94912.38;;;11.66;100.00
19783;BME280;10051;40.294;-3.754;2024-02-14T02:38:41;94902.91;;;11.65;100.00
19783;BME280;10051;40.294;-3.754;2024-02-14T02:41:07;94822.13;;;11.13;100.00
19783;BME280;10051;40.294;-3.754;2024-02-14T02:43:33;94895.25;;;11.68;100.00
19783;BME280;10051;40.294;-3.754;2024-02-14T02:45:59;94883.94;;;11.63;100.00
19783;BME280;10051;40.294;-3.754;2024-02-14T02:48:25;94834.44;;;11.39;100.00
19783;BME280;10051;40.294;-3.754;2024-02-14T02:50:51;94920.44;;;11.95;100.00
19783;BME280;10051;40.294;-3.754;2024-02-14T02:53:18;94835.50;;;11.33;100.00
19783;BME280;10051;40.294;-3.754;2024-02-14T02:55:44;94883.41;;;11.66;100.00
19783;BME280;10051;40.294;-3.754;2024-02-14T02:58:10;94838.66;;;11.35;100.00
19783;BME280;10051;40.294;-3.754;2024-02-14T03:00:36;94802.38;;;11.16;100.00
19783;BME280;10051;40.294;-3.754;2024-02-14T03:03:02;94845.00;;;11.28;100.00
19783;BME280;10051;40.294;-3.754;2024-02-14T03:05:30;94922.91;;;11.66;100.00
19783;BME280;10051;40.294;-3.754;2024-02-14T03:07:58;94822.41;;;10.96;100.00
19783;BME280;10051;40.294;-3.754;2024-02-14T03:10:25;94916.06;;;11.54;100.00
19783;BME280;10051;40.294;-3.754;2024-02-14T03:12:51;94919.25;;;11.56;100.00
19783;BME280;10051;40.294;-3.754;2024-02-14T03:15:17;94921.59;;;11.53;100.00
19783;BME280;10051;40.294;-3.754;2024-02-14T03:17:43;94879.50;;;11.16;100.00
19783;BME280;10051;40.294;-3.754;2024-02-14T03:20:12;94883.72;;;11.12;100.00
19783;BME280;10051;40.294;-3.754;2024-02-14T03:22:41;94839.25;;;10.69;100.00
19783;BME280;10051;40.294;-3.754;2024-02-14T03:25:16;94841.06;;;10.74;100.00
19783;BME280;10051;40.294;-3.754;2024-02-14T03:27:42;94866.88;;;10.88;100.00
19783;BME280;10051;40.294;-3.754;2024-02-14T03:30:08;94880.56;;;10.90;100.00
19783;BME280;10051;40.294;-3.754;2024-02-14T03:32:33;94888.19;;;11.07;100.00
19783;BME280;10051;40.294;-3.754;2024-02-14T03:34:59;94887.66;;;11.05;100.00
19783;BME280;10051;40.294;-3.754;2024-02-14T03:37:26;94880.81;;;10.93;100.00
19783;BME280;10051;40.294;-3.754;2024-02-14T03:39:52;94931.09;;;11.33;100.00
19783;BME280;10051;40.294;-3.754;2024-02-14T03:42:18;94833.72;;;10.76;100.00
19783;BME280;10051;40.294;-3.754;2024-02-14T03:44:45;94837.13;;;10.87;100.00
19783;BME280;10051;40.294;-3.754;2024-02-14T03:47:11;94932.94;;;11.48;100.00
19783;BME280;10051;40.294;-3.754;2024-02-14T03:49:38;94838.19;;;10.70;100.00
19783;BME280;10051;40.294;-3.754;2024-02-14T03:52:06;94932.44;;;11.25;100.00
19783;BME280;10051;40.294;-3.754;2024-02-14T03:54:36;94933.47;;;11.35;100.00
19783;BME280;10051;40.294;-3.754;2024-02-14T03:57:02;94895.56;;;11.10;100.00
19783;BME280;10051;40.294;-3.754;2024-02-14T03:59:29;94917.69;;;11.24;100.00
19783;BME280;10051;40.294;-3.754;2024-02-14T04:01:55;94934.50;;;11.39;100.00
19783;BME280;10051;40.294;-3.754;2024-02-14T04:04:21;94907.38;;;11.07;100.00
19783;BME280;10051;40.294;-3.754;2024-02-14T04:06:47;94934.50;;;11.34;100.00
19783;BME280;10051;40.294;-3.754;2024-02-14T04:09:13;94930.31;;;11.33;100.00
19783;BME280;10051;40.294;-3.754;2024-02-14T04:11:38;94801.09;;;10.51;100.00
19783;BME280;10051;40.294;-3.754;2024-02-14T04:14:05;94893.47;;;11.12;100.00
19783;BME280;10051;40.294;-3.754;2024-02-14T04:16:30;94819.50;;;10.62;100.00
19783;BME280;10051;40.294;-3.754;2024-02-14T04:18:56;94936.38;;;11.33;100.00
19783;BME280;10051;40.294;-3.754;2024-02-14T04:21:21;94906.59;;;10.96;100.00
19783;BME280;10051;40.294;-3.754;2024-02-14T04:23:47;94867.38;;;10.53;100.00
19783;BME280;10051;40.294;-3.754;2024-02-14T04:26:22;94955.56;;;11.08;100.00
19783;BME280;10051;40.294;-3.754;2024-02-14T04:28:48;94860.19;;;10.33;100.00
19783;BME280;10051;40.294;-3.754;2024-02-14T04:31:13;94930.78;;;10.83;100.00
19783;BME280;10051;40.294;-3.754;2024-02-14T04:33:39;94879.69;;;10.43;100.00
19783;BME280;10051;40.294;-3.754;2024-02-14T04:36:05;94948.72;;;10.96;100.00
19783;BME280;10051;40.294;-3.754;2024-02-14T04:38:31;94950.81;;;10.99;100.00
19783;BME280;10051;40.294;-3.754;2024-02-14T04:40:57;94938.19;;;10.96;100.00
19783;BME280;10051;40.294;-3.754;2024-02-14T04:43:25;94932.63;;;10.82;100.00
19783;BME280;10051;40.294;-3.754;2024-02-14T04:45:52;94971.38;;;11.08;100.00
19783;BME280;10051;40.294;-3.754;2024-02-14T04:48:18;94952.41;;;11.00;100.00
19783;BME280;10051;40.294;-3.754;2024-02-14T04:50:43;94912.38;;;10.73;100.00
19783;BME280;10051;40.294;-3.754;2024-02-14T04:53:09;94907.13;;;10.73;100.00
19783;BME280;10051;40.294;-3.754;2024-02-14T04:55:34;94943.97;;;10.98;100.00
19783;BME280;10051;40.294;-3.754;2024-02-14T04:58:01;94920.53;;;10.81;100.00
19783;BME280;10051;40.294;-3.754;2024-02-14T05:00:27;94921.31;;;10.82;100.00
19783;BME280;10051;40.294;-3.754;2024-02-14T05:02:53;94914.50;;;10.81;100.00
19783;BME280;10051;40.294;-3.754;2024-02-14T05:05:18;94880.53;;;10.69;100.00
19783;BME280;10051;40.294;-3.754;2024-02-14T05:07:45;94874.72;;;10.62;100.00
19783;BME280;10051;40.294;-3.754;2024-02-14T05:10:11;94809.19;;;10.29;100.00
19783;BME280;10051;40.294;-3.754;2024-02-14T05:12:37;94915.84;;;10.99;100.00
19783;BME280;10051;40.294;-3.754;2024-02-14T05:15:03;94963.47;;;11.28;100.00
19783;BME280;10051;40.294;-3.754;2024-02-14T05:17:29;94895.81;;;10.82;100.00
19783;BME280;10051;40.294;-3.754;2024-02-14T05:19:55;94941.91;;;11.16;100.00
19783;BME280;10051;40.294;-3.754;2024-02-14T05:22:22;94923.44;;;11.00;100.00
19783;BME280;10051;40.294;-3.754;2024-02-14T05:24:48;94903.19;;;10.91;100.00
19783;BME280;10051;40.294;-3.754;2024-02-14T05:27:13;94922.16;;;11.03;100.00
19783;BME280;10051;40.294;-3.754;2024-02-14T05:29:39;94892.66;;;10.96;100.00
19783;BME280;10051;40.294;-3.754;2024-02-14T05:32:05;94860.31;;;10.80;100.00
19783;BME280;10051;40.294;-3.754;2024-02-14T05:34:30;94838.44;;;10.69;100.00
19783;BME280;10051;40.294;-3.754;2024-02-14T05:36:56;94951.38;;;11.48;100.00
19783;BME280;10051;40.294;-3.754;2024-02-14T05:39:21;94925.56;;;11.40;100.00
19783;BME280;10051;40.294;-3.754;2024-02-14T05:41:47;94855.84;;;10.96;100.00
19783;BME280;10051;40.294;-3.754;2024-02-14T05:44:14;94949.25;;;11.66;100.00
19783;BME280;10051;40.294;-3.754;2024-02-14T05:46:40;94860.53;;;11.04;100.00
19783;BME280;10051;40.294;-3.754;2024-02-14T05:49:06;94922.66;;;11.52;100.00
19783;BME280;10051;40.294;-3.754;2024-02-14T05:51:32;94948.69;;;11.74;100.00
19783;BME280;10051;40.294;-3.754;2024-02-14T05:53:57;94971.09;;;11.87;100.00
19783;BME280;10051;40.294;-3.754;2024-02-14T05:56:23;94856.63;;;11.12;100.00
19783;BME280;10051;40.294;-3.754;2024-02-14T05:58:48;94867.16;;;11.17;100.00
19783;BME280;10051;40.294;-3.754;2024-02-14T06:01:14;94869.25;;;11.15;100.00
19783;BME280;10051;40.294;-3.754;2024-02-14T06:03:41;94918.94;;;11.63;100.00
19783;BME280;10051;40.294;-3.754;2024-02-14T06:06:08;94857.13;;;11.19;100.00
19783;BME280;10051;40.294;-3.754;2024-02-14T06:08:33;94823.44;;;11.06;100.00
19783;BME280;10051;40.294;-3.754;2024-02-14T06:10:59;94872.38;;;11.33;100.00
19783;BME280;10051;40.294;-3.754;2024-02-14T06:13:24;94880.25;;;11.48;100.00
19783;BME280;10051;40.294;-3.754;2024-02-14T06:15:50;94846.31;;;11.36;100.00
19783;BME280;10051;40.294;-3.754;2024-02-14T06:18:15;94824.22;;;11.27;100.00
19783;BME280;10051;40.294;-3.754;2024-02-14T06:20:41;94865.50;;;11.57;100.00
19783;BME280;10051;40.294;-3.754;2024-02-14T06:23:07;94894.47;;;11.68;100.00
19783;BME280;10051;40.294;-3.754;2024-02-14T06:25:33;94833.41;;;11.35;100.00
19783;BME280;10051;40.294;-3.754;2024-02-14T06:27:59;94927.59;;;12.00;100.00
19783;BME280;10051;40.294;-3.754;2024-02-14T06:30:24;94890.19;;;11.77;100.00
19783;BME280;10051;40.294;-3.754;2024-02-14T06:32:50;94901.25;;;11.84;100.00
19783;BME280;10051;40.294;-3.754;2024-02-14T06:35:15;94874.97;;;11.64;100.00
19783;BME280;10051;40.294;-3.754;2024-02-14T06:37:44;94918.09;;;11.94;100.00
19783;BME280;10051;40.294;-3.754;2024-02-14T06:40:10;94862.88;;;11.57;100.00
19783;BME280;10051;40.294;-3.754;2024-02-14T06:42:36;94825.50;;;11.35;100.00
19783;BME280;10051;40.294;-3.754;2024-02-14T06:45:02;94875.22;;;11.72;100.00
19783;BME280;10051;40.294;-3.754;2024-02-14T06:47:28;94937.09;;;12.06;100.00
19783;BME280;10051;40.294;-3.754;2024-02-14T06:49:58;94941.81;;;11.99;100.00
19783;BME280;10051;40.294;-3.754;2024-02-14T06:52:24;94939.72;;;12.01;100.00
19783;BME280;10051;40.294;-3.754;2024-02-14T06:54:50;94841.31;;;11.35;100.00
19783;BME280;10051;40.294;-3.754;2024-02-14T06:57:15;94919.44;;;11.91;100.00
19783;BME280;10051;40.294;-3.754;2024-02-14T06:59:41;94947.34;;;12.02;100.00
19783;BME280;10051;40.294;-3.754;2024-02-14T07:02:07;94900.75;;;11.72;100.00
19783;BME280;10051;40.294;-3.754;2024-02-14T07:04:33;94857.91;;;11.40;100.00
19783;BME280;10051;40.294;-3.754;2024-02-14T07:06:58;94937.91;;;11.86;100.00
19783;BME280;10051;40.294;-3.754;2024-02-14T07:09:24;94850.78;;;11.36;100.00
19783;BME280;10051;40.294;-3.754;2024-02-14T07:11:50;94949.97;;;12.08;100.00
19783;BME280;10051;40.294;-3.754;2024-02-14T07:14:19;94931.28;;;11.88;100.00
19783;BME280;10051;40.294;-3.754;2024-02-14T07:16:45;94901.56;;;11.72;100.00
19783;BME280;10051;40.294;-3.754;2024-02-14T07:19:10;94821.59;;;11.27;100.00
19783;BME280;10051;40.294;-3.754;2024-02-14T07:21:36;94837.38;;;11.37;100.00
19783;BME280;10051;40.294;-3.754;2024-02-14T07:24:04;94836.03;;;11.29;100.00
19783;BME280;10051;40.294;-3.754;2024-02-14T07:26:30;94812.41;;;11.09;100.00
19783;BME280;10051;40.294;-3.754;2024-02-14T07:28:56;94850.25;;;11.39;100.00
19783;BME280;10051;40.294;-3.754;2024-02-14T07:31:21;94848.16;;;11.41;100.00
19783;BME280;10051;40.294;-3.754;2024-02-14T07:33:47;94930.75;;;11.92;100.00
19783;BME280;10051;40.294;-3.754;2024-02-14T07:36:14;94939.16;;;11.99;100.00
19783;BME280;10051;40.294;-3.754;2024-02-14T07:38:39;94908.63;;;11.82;100.00
19783;BME280;10051;40.294;-3.754;2024-02-14T07:41:05;94963.13;;;12.18;100.00
19783;BME280;10051;40.294;-3.754;2024-02-14T07:43:30;94903.38;;;11.77;100.00
19783;BME280;10051;40.294;-3.754;2024-02-14T07:45:56;94894.41;;;11.78;100.00
19783;BME280;10051;40.294;-3.754;2024-02-14T07:48:21;94939.97;;;12.04;100.00
19783;BME280;10051;40.294;-3.754;2024-02-14T07:50:48;94924.69;;;12.01;100.00
19783;BME280;10051;40.294;-3.754;2024-02-14T07:53:13;94922.31;;;11.89;100.00
19783;BME280;10051;40.294;-3.754;2024-02-14T07:55:39;94836.31;;;11.43;100.00
19783;BME280;10051;40.294;-3.754;2024-02-14T07:58:05;94929.94;;;11.96;100.00
19783;BME280;10051;40.294;-3.754;2024-02-14T08:00:30;94892.84;;;11.72;100.00
19783;BME280;10051;40.294;-3.754;2024-02-14T08:02:56;94946.81;;;12.05;100.00
19783;BME280;10051;40.294;-3.754;2024-02-14T08:05:21;94906.28;;;11.75;100.00
19783;BME280;10051;40.294;-3.754;2024-02-14T08:07:47;94984.47;;;12.27;100.00
19783;BME280;10051;40.294;-3.754;2024-02-14T08:10:13;94935.75;;;12.03;100.00
19783;BME280;10051;40.294;-3.754;2024-02-14T08:12:39;94916.00;;;11.96;100.00
19783;BME280;10051;40.294;-3.754;2024-02-14T08:15:04;94961.56;;;12.12;100.00
19783;BME280;10051;40.294;-3.754;2024-02-14T08:17:32;94925.25;;;11.88;100.00
19783;BME280;10051;40.294;-3.754;2024-02-14T08:19:58;95001.31;;;12.41;100.00
19783;BME280;10051;40.294;-3.754;2024-02-14T08:22:24;94883.38;;;11.71;100.00
19783;BME280;10051;40.294;-3.754;2024-02-14T08:24:52;94972.06;;;12.27;100.00
19783;BME280;10051;40.294;-3.754;2024-02-14T08:27:17;94924.97;;;12.05;100.00
19783;BME280;10051;40.294;-3.754;2024-02-14T08:29:42;94928.13;;;12.07;100.00
19783;BME280;10051;40.294;-3.754;2024-02-14T08:32:08;94927.31;;;12.07;100.00
19783;BME280;10051;40.294;-3.754;2024-02-14T08:34:33;94908.63;;;11.93;100.00
19783;BME280;10051;40.294;-3.754;2024-02-14T08:37:00;94940.50;;;12.07;100.00
19783;BME280;10051;40.294;-3.754;2024-02-14T08:39:25;94923.38;;;11.94;100.00
19783;BME280;10051;40.294;-3.754;2024-02-14T08:41:51;94864.97;;;11.66;100.00
19783;BME280;10051;40.294;-3.754;2024-02-14T08:44:18;94972.59;;;12.29;100.00
19783;BME280;10051;40.294;-3.754;2024-02-14T08:46:43;94898.09;;;11.87;100.00
19783;BME280;10051;40.294;-3.754;2024-02-14T08:49:10;95000.19;;;12.58;100.00
19783;BME280;10051;40.294;-3.754;2024-02-14T08:51:35;94879.13;;;11.75;100.00
19783;BME280;10051;40.294;-3.754;2024-02-14T08:54:02;94995.41;;;12.60;100.00
19783;BME280;10051;40.294;-3.754;2024-02-14T08:56:33;95003.31;;;12.60;100.00
19783;BME280;10051;40.294;-3.754;2024-02-14T08:59:02;94902.81;;;12.01;100.00
19783;BME280;10051;40.294;-3.754;2024-02-14T09:01:29;94921.78;;;12.03;100.00
19783;BME280;10051;40.294;-3.754;2024-02-14T09:03:55;94937.06;;;12.11;100.00
19783;BME280;10051;40.294;-3.754;2024-02-14T09:06:21;95004.13;;;12.60;100.00
19783;BME280;10051;40.294;-3.754;2024-02-14T09:08:47;94908.59;;;12.08;100.00
19783;BME280;10051;40.294;-3.754;2024-02-14T09:11:13;94904.91;;;12.09;100.00
19783;BME280;10051;40.294;-3.754;2024-02-14T09:13:39;94888.06;;;12.00;100.00
19783;BME280;10051;40.294;-3.754;2024-02-14T09:16:07;94988.00;;;12.67;100.00
19783;BME280;10051;40.294;-3.754;2024-02-14T09:18:33;94979.03;;;12.63;100.00
19783;BME280;10051;40.294;-3.754;2024-02-14T09:20:58;94895.44;;;12.03;100.00
19783;BME280;10051;40.294;-3.754;2024-02-14T09:23:24;94867.00;;;11.79;100.00
19783;BME280;10051;40.294;-3.754;2024-02-14T09:25:49;94907.03;;;12.07;100.00
19783;BME280;10051;40.294;-3.754;2024-02-14T09:28:16;94913.81;;;12.18;100.00
19783;BME280;10051;40.294;-3.754;2024-02-14T09:30:41;94983.25;;;12.64;100.00
19783;BME280;10051;40.294;-3.754;2024-02-14T09:33:07;94954.88;;;12.45;100.00
19783;BME280;10051;40.294;-3.754;2024-02-14T09:35:35;94976.41;;;12.63;100.00
19783;BME280;10051;40.294;-3.754;2024-02-14T09:38:03;94967.97;;;12.61;100.00
19783;BME280;10051;40.294;-3.754;2024-02-14T09:40:29;95008.69;;;13.00;100.00
19783;BME280;10051;40.294;-3.754;2024-02-14T09:42:55;94933.16;;;12.59;100.00
19783;BME280;10051;40.294;-3.754;2024-02-14T09:45:26;94972.59;;;12.90;100.00
19783;BME280;10051;40.294;-3.754;2024-02-14T09:47:53;94947.31;;;12.78;100.00
19783;BME280;10051;40.294;-3.754;2024-02-14T09:50:20;94941.50;;;12.76;100.00
19783;BME280;10051;40.294;-3.754;2024-02-14T09:52:47;94976.97;;;13.05;100.00
19783;BME280;10051;40.294;-3.754;2024-02-14T09:55:16;94942.25;;;12.82;100.00
19783;BME280;10051;40.294;-3.754;2024-02-14T09:57:43;94987.97;;;13.22;100.00
19783;BME280;10051;40.294;-3.754;2024-02-14T10:00:11;94999.25;;;13.33;100.00
19783;BME280;10051;40.294;-3.754;2024-02-14T10:02:40;94968.72;;;13.17;100.00
19783;BME280;10051;40.294;-3.754;2024-02-14T10:05:06;94981.81;;;13.32;100.00
19783;BME280;10051;40.294;-3.754;2024-02-14T10:07:42;94953.13;;;13.20;100.00
19783;BME280;10051;40.294;-3.754;2024-02-14T10:10:09;94961.00;;;13.26;100.00
19783;BME280;10051;40.294;-3.754;2024-02-14T10:12:35;94906.47;;;13.05;100.00
19783;BME280;10051;40.294;-3.754;2024-02-14T10:15:01;94943.75;;;13.38;100.00
19783;BME280;10051;40.294;-3.754;2024-02-14T10:17:30;94992.06;;;13.79;100.00
19783;BME280;10051;40.294;-3.754;2024-02-14T10:20:00;94952.50;;;13.68;100.00
19783;BME280;10051;40.294;-3.754;2024-02-14T10:22:37;94936.53;;;13.79;100.00
19783;BME280;10051;40.294;-3.754;2024-02-14T10:25:03;94972.13;;;14.16;100.00
19783;BME280;10051;40.294;-3.754;2024-02-14T10:27:32;94925.75;;;14.00;100.00
19783;BME280;10051;40.294;-3.754;2024-02-14T10:29:59;94954.06;;;14.23;100.00
19783;BME280;10051;40.294;-3.754;2024-02-14T10:32:24;94824.34;;;13.42;100.00
19783;BME280;10051;40.294;-3.754;2024-02-14T10:34:50;94956.72;;;14.23;100.00
19783;BME280;10051;40.294;-3.754;2024-02-14T10:37:17;94951.47;;;14.18;100.00
19783;BME280;10051;40.294;-3.754;2024-02-14T10:39:45;94923.06;;;14.05;100.00
19783;BME280;10051;40.294;-3.754;2024-02-14T10:42:12;94881.41;;;13.91;100.00
19783;BME280;10051;40.294;-3.754;2024-02-14T10:44:38;94929.13;;;14.30;100.00
19783;BME280;10051;40.294;-3.754;2024-02-14T10:47:06;94966.81;;;14.65;100.00
19783;BME280;10051;40.294;-3.754;2024-02-14T10:49:33;94874.31;;;14.11;100.00
19783;BME280;10051;40.294;-3.754;2024-02-14T10:52:01;94897.16;;;14.26;100.00
19783;BME280;10051;40.294;-3.754;2024-02-14T10:54:34;94971.44;;;14.78;100.00
19783;BME280;10051;40.294;-3.754;2024-02-14T10:57:06;94932.97;;;14.62;100.00
19783;BME280;10051;40.294;-3.754;2024-02-14T10:59:41;94969.88;;;14.77;100.00
19783;BME280;10051;40.294;-3.754;2024-02-14T11:02:08;94955.56;;;14.78;100.00
19783;BME280;10051;40.294;-3.754;2024-02-14T11:04:34;94945.94;;;14.82;100.00
19783;BME280;10051;40.294;-3.754;2024-02-14T11:07:00;94853.78;;;14.46;100.00
19783;BME280;10051;40.294;-3.754;2024-02-14T11:09:32;94912.84;;;14.85;100.00
19783;BME280;10051;40.294;-3.754;2024-02-14T11:12:01;94878.25;;;14.57;100.00
19783;BME280;10051;40.294;-3.754;2024-02-14T11:14:31;94892.03;;;14.78;100.00
19783;BME280;10051;40.294;-3.754;2024-02-14T11:16:59;94915.25;;;15.00;100.00
19783;BME280;10051;40.294;-3.754;2024-02-14T11:19:30;94916.53;;;15.03;100.00
19783;BME280;10051;40.294;-3.754;2024-02-14T11:21:59;94947.72;;;15.25;100.00
19783;BME280;10051;40.294;-3.754;2024-02-14T11:24:28;94837.00;;;14.56;100.00
19783;BME280;10051;40.294;-3.754;2024-02-14T11:26:55;94941.63;;;15.25;100.00
19783;BME280;10051;40.294;-3.754;2024-02-14T11:29:28;94939.41;;;15.32;100.00
19783;BME280;10051;40.294;-3.754;2024-02-14T11:31:58;94941.72;;;15.53;100.00
19783;BME280;10051;40.294;-3.754;2024-02-14T11:34:25;94891.63;;;15.37;100.00
19783;BME280;10051;40.294;-3.754;2024-02-14T11:36:53;94899.91;;;15.50;100.00
19783;BME280;10051;40.294;-3.754;2024-02-14T11:39:20;94923.13;;;15.72;100.00
19783;BME280;10051;40.294;-3.754;2024-02-14T11:41:46;94921.38;;;15.81;100.00
19783;BME280;10051;40.294;-3.754;2024-02-14T11:44:11;94897.00;;;15.79;100.00
19783;BME280;10051;40.294;-3.754;2024-02-14T11:46:37;94930.66;;;16.26;100.00
19783;BME280;10051;40.294;-3.754;2024-02-14T11:49:04;94925.41;;;16.48;100.00
19783;BME280;10051;40.294;-3.754;2024-02-14T11:51:33;94897.19;;;16.53;100.00
19783;BME280;10051;40.294;-3.754;2024-02-14T11:54:01;94919.16;;;16.81;100.00
19783;BME280;10051;40.294;-3.754;2024-02-14T11:56:39;94880.16;;;16.68;100.00
19783;BME280;10051;40.294;-3.754;2024-02-14T11:59:08;94910.53;;;17.12;100.00
19783;BME280;10051;40.294;-3.754;2024-02-14T12:01:35;94836.94;;;16.76;100.00
19783;BME280;10051;40.294;-3.754;2024-02-14T12:04:06;94835.28;;;16.80;100.00
19783;BME280;10051;40.294;-3.754;2024-02-14T12:06:34;94867.53;;;17.10;99.54
19783;BME280;10051;40.294;-3.754;2024-02-14T12:09:04;94839.50;;;17.04;98.71
19783;BME280;10051;40.294;-3.754;2024-02-14T12:11:38;94850.13;;;17.27;97.14
19783;BME280;10051;40.294;-3.754;2024-02-14T12:14:08;94863.47;;;17.35;98.82
19783;BME280;10051;40.294;-3.754;2024-02-14T12:16:35;94878.78;;;17.61;98.37
19783;BME280;10051;40.294;-3.754;2024-02-14T12:19:15;94800.72;;;17.26;95.19
19783;BME280;10051;40.294;-3.754;2024-02-14T12:21:41;94854.44;;;17.77;96.79
19783;BME280;10051;40.294;-3.754;2024-02-14T12:24:12;94871.44;;;17.98;94.34
19783;BME280;10051;40.294;-3.754;2024-02-14T12:26:41;94862.31;;;18.31;94.40
19783;BME280;10051;40.294;-3.754;2024-02-14T12:29:11;94877.06;;;18.46;91.84
19783;BME280;10051;40.294;-3.754;2024-02-14T12:31:38;94788.13;;;17.80;91.07
19783;BME280;10051;40.294;-3.754;2024-02-14T12:34:04;94803.75;;;17.73;91.82
19783;BME280;10051;40.294;-3.754;2024-02-14T12:36:33;94785.25;;;17.68;92.04